createdAt,value
2023-05-08T00:00:43.645Z,11.50
2023-05-08T00:01:43.673Z,11.20
2023-05-08T00:02:43.693Z,11.30
2023-05-08T00:03:43.798Z,11.50
2023-05-08T00:04:43.684Z,11.70
2023-05-08T00:05:43.650Z,11.80
2023-05-08T00:06:43.604Z,11.60
2023-05-08T00:07:43.609Z,12.10
2023-05-08T00:08:43.609Z,12.30
2023-05-08T00:09:43.589Z,11.40
2023-05-08T00:10:43.617Z,11.90
2023-05-08T00:11:43.585Z,12.00
2023-05-08T00:12:43.629Z,12.00
2023-05-08T00:13:43.555Z,11.70
2023-05-08T00:14:43.576Z,12.20
2023-05-08T00:15:43.562Z,11.80
2023-05-08T00:16:43.576Z,12.50
2023-05-08T00:17:43.636Z,12.10
2023-05-08T00:18:43.528Z,11.80
2023-05-08T00:19:43.529Z,12.90
2023-05-08T00:20:43.516Z,12.70
2023-05-08T00:21:43.518Z,13.10
2023-05-08T00:22:43.529Z,12.70
2023-05-08T00:23:43.538Z,12.50
2023-05-08T00:24:43.494Z,13.00
2023-05-08T00:25:43.484Z,12.70
2023-05-08T00:26:43.467Z,13.20
2023-05-08T00:27:43.510Z,13.50
2023-05-08T00:28:43.475Z,12.80
2023-05-08T00:29:43.472Z,13.30
2023-05-08T00:30:43.468Z,12.80
2023-05-08T00:31:43.527Z,13.10
2023-05-08T00:32:43.493Z,13.10
2023-05-08T00:33:43.464Z,13.20
2023-05-08T00:34:43.428Z,13.20
2023-05-08T00:35:43.456Z,13.70
2023-05-08T00:36:43.416Z,14.20
2023-05-08T00:37:43.407Z,13.60
2023-05-08T00:38:43.393Z,13.70
2023-05-08T00:39:43.421Z,13.50
2023-05-08T00:40:43.402Z,14.30
2023-05-08T00:41:43.386Z,13.60
2023-05-08T00:42:43.397Z,14.30
2023-05-08T00:43:43.404Z,14.20
2023-05-08T00:44:43.377Z,13.60
2023-05-08T00:45:43.364Z,14.30
2023-05-08T00:46:43.415Z,14.40
2023-05-08T00:47:43.438Z,14.00
2023-05-08T00:48:43.358Z,14.00
2023-05-08T00:49:43.346Z,14.50
2023-05-08T00:50:43.345Z,14.30
2023-05-08T00:51:43.345Z,14.80
2023-05-08T00:52:43.342Z,15.00
2023-05-08T00:53:43.355Z,14.40
2023-05-08T00:54:43.293Z,14.70
2023-05-08T00:55:43.341Z,14.90
2023-05-08T00:56:43.297Z,14.50
2023-05-08T00:57:43.302Z,15.80
2023-05-08T00:58:43.292Z,14.90
2023-05-08T00:59:43.294Z,14.80
2023-05-08T01:00:43.300Z,15.60
2023-05-08T01:01:43.305Z,15.30
2023-05-08T01:02:43.338Z,15.60
2023-05-08T01:03:43.404Z,15.70
2023-05-08T01:04:43.276Z,15.50
2023-05-08T01:05:43.267Z,16.50
2023-05-08T01:06:43.240Z,16.10
2023-05-08T01:07:43.304Z,15.40
2023-05-08T01:08:43.240Z,15.70
2023-05-08T01:09:43.254Z,15.90
2023-05-08T01:10:43.230Z,16.20
2023-05-08T01:11:43.218Z,15.40
2023-05-08T01:12:43.310Z,16.20
2023-05-08T01:13:43.289Z,16.00
2023-05-08T01:14:43.211Z,16.30
2023-05-08T01:15:43.264Z,16.90
2023-05-08T01:16:43.187Z,16.40
2023-05-08T01:17:43.225Z,17.30
2023-05-08T01:18:43.169Z,16.20
2023-05-08T01:19:43.182Z,16.00
2023-05-08T01:20:43.206Z,16.50
2023-05-08T01:21:43.225Z,16.30
2023-05-08T01:22:43.186Z,16.60
2023-05-08T01:23:43.153Z,15.80
2023-05-08T01:24:43.158Z,16.90
2023-05-08T01:25:43.139Z,16.60
2023-05-08T01:26:43.147Z,17.00
2023-05-08T01:27:43.196Z,16.40
2023-05-08T01:28:43.106Z,17.60
2023-05-08T01:29:43.123Z,17.00
2023-05-08T01:30:43.129Z,16.40
2023-05-08T01:31:43.106Z,17.40
2023-05-08T01:32:43.149Z,16.90
2023-05-08T01:33:43.135Z,17.30
2023-05-08T01:34:43.101Z,17.00
2023-05-08T01:35:43.115Z,17.60
2023-05-08T01:36:43.067Z,16.80
2023-05-08T01:37:43.101Z,18.40
2023-05-08T01:38:43.051Z,17.70
2023-05-08T01:39:43.081Z,17.00
2023-05-08T01:40:43.057Z,17.50
2023-05-08T01:41:43.084Z,17.90
2023-05-08T01:42:43.066Z,17.90
2023-05-08T01:43:43.059Z,17.50
2023-05-08T01:44:43.023Z,18.30
2023-05-08T01:45:43.086Z,17.50
2023-05-08T01:46:43.039Z,17.70
2023-05-08T01:47:43.084Z,18.70
2023-05-08T01:48:43.558Z,18.20
2023-05-08T01:49:43.047Z,18.30
2023-05-08T01:50:43.000Z,17.80
2023-05-08T01:51:43.005Z,17.80
2023-05-08T01:52:42.979Z,18.00
2023-05-08T01:53:42.989Z,17.80
2023-05-08T01:54:42.994Z,18.30
2023-05-08T01:55:42.992Z,17.90
2023-05-08T01:56:43.002Z,17.20
2023-05-08T01:57:42.975Z,18.40
2023-05-08T01:58:42.965Z,17.00
2023-05-08T01:59:43.006Z,17.20
2023-05-08T02:00:42.945Z,17.40
2023-05-08T02:01:42.935Z,17.70
2023-05-08T02:02:43.102Z,17.50
2023-05-08T02:03:42.962Z,18.10
2023-05-08T02:04:42.930Z,17.20
2023-05-08T02:05:42.961Z,17.40
2023-05-08T02:06:42.924Z,17.10
2023-05-08T02:07:42.898Z,17.80
2023-05-08T02:08:42.899Z,17.60
2023-05-08T02:09:42.929Z,17.60
2023-05-08T02:10:42.888Z,17.80
2023-05-08T02:11:42.915Z,17.60
2023-05-08T02:12:42.936Z,17.80
2023-05-08T02:13:42.880Z,17.80
2023-05-08T02:14:42.842Z,18.40
2023-05-08T02:15:42.861Z,18.10
2023-05-08T02:16:42.857Z,17.40
2023-05-08T02:17:42.885Z,17.60
2023-05-08T02:18:42.849Z,17.90
2023-05-08T02:19:42.833Z,18.10
2023-05-08T02:20:42.840Z,18.00
2023-05-08T02:21:42.823Z,17.50
2023-05-08T02:22:42.800Z,18.50
2023-05-08T02:23:42.814Z,17.50
2023-05-08T02:24:42.804Z,18.20
2023-05-08T02:25:42.894Z,18.00
2023-05-08T02:26:42.778Z,18.20
2023-05-08T02:27:42.783Z,18.10
2023-05-08T02:28:42.771Z,18.50
2023-05-08T02:29:42.774Z,17.60
2023-05-08T02:30:42.732Z,18.40
2023-05-08T02:31:42.801Z,18.10
2023-05-08T02:32:42.743Z,17.80
2023-05-08T02:33:42.756Z,18.20
2023-05-08T02:34:51.169Z,17.60
2023-05-08T02:35:43.757Z,17.30
2023-05-08T02:36:42.762Z,17.50
2023-05-08T02:37:42.805Z,18.10
2023-05-08T02:38:42.703Z,18.00
2023-05-08T02:39:42.687Z,17.60
2023-05-08T02:40:42.673Z,17.80
2023-05-08T02:41:42.755Z,18.00
2023-05-08T02:42:42.686Z,17.70
2023-05-08T02:43:42.663Z,18.20
2023-05-08T02:44:42.652Z,18.30
2023-05-08T02:45:42.677Z,17.80
2023-05-08T02:46:42.779Z,18.10
2023-05-08T02:47:42.689Z,17.90
2023-05-08T02:48:42.621Z,18.20
2023-05-08T02:49:42.637Z,17.40
2023-05-08T02:50:42.604Z,18.30
2023-05-08T02:51:42.642Z,18.70
2023-05-08T02:52:42.626Z,18.40
2023-05-08T02:53:42.618Z,17.90
2023-05-08T02:54:42.583Z,18.10
2023-05-08T02:55:42.614Z,18.00
2023-05-08T02:56:42.598Z,18.50
2023-05-08T02:57:42.609Z,17.80
2023-05-08T02:58:42.596Z,18.50
2023-05-08T02:59:42.561Z,18.00
2023-05-08T03:00:42.560Z,18.50
2023-05-08T03:01:42.580Z,18.30
2023-05-08T03:02:42.607Z,18.30
2023-05-08T03:03:42.696Z,18.20
2023-05-08T03:04:42.545Z,18.90
2023-05-08T03:05:42.526Z,18.40
2023-05-08T03:06:42.529Z,18.60
2023-05-08T03:07:42.546Z,18.80
2023-05-08T03:08:42.524Z,18.60
2023-05-08T03:09:42.536Z,18.20
2023-05-08T03:10:42.523Z,18.80
2023-05-08T03:11:42.488Z,18.60
2023-05-08T03:12:42.845Z,18.10
2023-05-08T03:13:42.475Z,18.90
2023-05-08T03:14:42.496Z,18.10
2023-05-08T03:15:42.511Z,19.00
2023-05-08T03:16:42.480Z,19.50
2023-05-08T03:17:42.486Z,19.20
2023-05-08T03:18:42.461Z,19.00
2023-05-08T03:19:42.458Z,19.60
2023-05-08T03:20:42.414Z,18.90
2023-05-08T03:21:42.449Z,19.00
2023-05-08T03:22:42.453Z,18.70
2023-05-08T03:23:42.435Z,18.90
2023-05-08T03:24:42.421Z,19.00
2023-05-08T03:25:42.413Z,19.20
2023-05-08T03:26:42.414Z,19.50
2023-05-08T03:27:42.423Z,19.20
2023-05-08T03:28:42.385Z,19.20
2023-05-08T03:29:42.402Z,19.70
2023-05-08T03:30:42.418Z,19.30
2023-05-08T03:31:42.524Z,19.10
2023-05-08T03:32:42.410Z,19.20
2023-05-08T03:33:42.402Z,19.00
2023-05-08T03:34:42.347Z,18.80
2023-05-08T03:35:42.376Z,19.20
2023-05-08T03:36:42.335Z,19.10
2023-05-08T03:37:42.345Z,19.60
2023-05-08T03:38:42.312Z,19.20
2023-05-08T03:39:42.341Z,19.80
2023-05-08T03:40:42.322Z,19.20
2023-05-08T03:41:42.332Z,19.90
2023-05-08T03:42:42.298Z,19.10
2023-05-08T03:43:42.311Z,20.20
2023-05-08T03:44:42.295Z,19.60
2023-05-08T03:45:42.305Z,19.60
2023-05-08T03:46:42.465Z,19.60
2023-05-08T03:47:42.517Z,20.20
2023-05-08T03:48:42.269Z,20.00
2023-05-08T03:49:42.314Z,19.20
2023-05-08T03:50:42.253Z,19.50
2023-05-08T03:51:42.255Z,19.80
2023-05-08T03:52:42.255Z,20.00
2023-05-08T03:53:42.308Z,20.40
2023-05-08T03:54:42.228Z,21.30
2023-05-08T03:55:43.089Z,20.00
2023-05-08T03:56:42.223Z,20.10
2023-05-08T03:57:42.233Z,20.50
2023-05-08T03:58:42.217Z,19.40
2023-05-08T03:59:42.229Z,20.20
2023-05-08T04:00:42.212Z,19.50
2023-05-08T04:01:42.252Z,20.80
2023-05-08T04:02:42.536Z,20.40
2023-05-08T04:03:42.260Z,20.10
2023-05-08T04:04:42.194Z,20.10
2023-05-08T04:05:42.198Z,20.10
2023-05-08T04:06:49.557Z,20.00
2023-05-08T04:07:43.187Z,20.60
2023-05-08T04:08:42.172Z,19.90
2023-05-08T04:09:42.154Z,20.20
2023-05-08T04:10:42.177Z,19.90
2023-05-08T04:11:42.158Z,19.90
2023-05-08T04:12:42.184Z,20.50
2023-05-08T04:13:42.131Z,20.00
2023-05-08T04:14:42.115Z,19.80
2023-05-08T04:15:42.115Z,20.60
2023-05-08T04:16:42.250Z,20.00
2023-05-08T04:17:42.176Z,20.10
2023-05-08T04:18:42.086Z,20.30
2023-05-08T04:19:42.096Z,20.50
2023-05-08T04:20:42.455Z,19.90
2023-05-08T04:21:42.220Z,19.60
2023-05-08T04:22:42.099Z,20.60
2023-05-08T04:23:42.109Z,20.60
2023-05-08T04:24:42.081Z,19.50
2023-05-08T04:25:42.086Z,19.90
2023-05-08T04:26:42.044Z,20.50
2023-05-08T04:27:42.105Z,20.50
2023-05-08T04:28:42.057Z,20.20
2023-05-08T04:29:42.045Z,20.60
2023-05-08T04:30:42.042Z,20.10
2023-05-08T04:31:42.099Z,19.50
2023-05-08T04:32:44.816Z,19.70
2023-05-08T04:33:42.064Z,20.70
2023-05-08T04:34:41.997Z,20.40
2023-05-08T04:35:42.011Z,19.80
2023-05-08T04:36:41.984Z,19.50
2023-05-08T04:37:42.018Z,19.60
2023-05-08T04:38:41.977Z,20.00
2023-05-08T04:39:43.737Z,20.10
2023-05-08T04:40:41.978Z,20.40
2023-05-08T04:41:42.034Z,19.70
2023-05-08T04:42:41.965Z,19.90
2023-05-08T04:43:41.969Z,20.10
2023-05-08T04:44:41.935Z,19.20
2023-05-08T04:45:41.965Z,19.80
2023-05-08T04:46:41.988Z,19.80
2023-05-08T04:47:41.962Z,19.50
2023-05-08T04:48:41.954Z,19.50
2023-05-08T04:49:41.950Z,20.40
2023-05-08T04:50:41.924Z,20.50
2023-05-08T04:51:41.963Z,19.80
2023-05-08T04:52:41.908Z,19.70
2023-05-08T04:53:41.915Z,19.50
2023-05-08T04:54:41.965Z,19.80
2023-05-08T04:55:41.934Z,19.50
2023-05-08T04:56:41.905Z,19.50
2023-05-08T04:57:41.905Z,20.10
2023-05-08T04:58:41.865Z,19.30
2023-05-08T04:59:41.915Z,19.90
2023-05-08T05:00:41.859Z,19.40
2023-05-08T05:01:41.891Z,20.10
2023-05-08T05:02:41.883Z,19.30
2023-05-08T05:03:41.937Z,19.90
2023-05-08T05:04:41.831Z,18.30
2023-05-08T05:05:41.868Z,18.80
2023-05-08T05:06:41.857Z,19.50
2023-05-08T05:07:41.853Z,19.50
2023-05-08T05:08:41.838Z,19.40
2023-05-08T05:09:41.817Z,19.30
2023-05-08T05:10:41.810Z,19.40
2023-05-08T05:11:41.832Z,19.30
2023-05-08T05:12:41.858Z,19.10
2023-05-08T05:13:41.818Z,18.70
2023-05-08T05:14:41.761Z,18.90
2023-05-08T05:15:41.823Z,19.20
2023-05-08T05:16:41.800Z,18.50
2023-05-08T05:17:41.827Z,18.50
2023-05-08T05:18:41.756Z,18.60
2023-05-08T05:19:41.795Z,19.10
2023-05-08T05:20:41.760Z,17.40
2023-05-08T05:21:41.750Z,18.20
2023-05-08T05:22:41.719Z,17.80
2023-05-08T05:23:41.760Z,17.60
2023-05-08T05:24:41.712Z,18.10
2023-05-08T05:25:41.722Z,17.40
2023-05-08T05:26:41.703Z,17.30
2023-05-08T05:27:41.707Z,18.10
2023-05-08T05:28:41.687Z,18.00
2023-05-08T05:29:41.718Z,16.20
2023-05-08T05:30:41.703Z,17.80
2023-05-08T05:31:41.695Z,17.70
2023-05-08T05:32:41.717Z,16.80
2023-05-08T05:33:41.682Z,16.50
2023-05-08T05:34:41.654Z,17.20
2023-05-08T05:35:41.689Z,16.90
2023-05-08T05:36:41.623Z,16.70
2023-05-08T05:37:41.649Z,16.30
2023-05-08T05:38:41.642Z,16.70
2023-05-08T05:39:41.641Z,16.40
2023-05-08T05:40:41.597Z,16.90
2023-05-08T05:41:41.642Z,17.20
2023-05-08T05:42:41.586Z,16.50
2023-05-08T05:43:41.609Z,16.30
2023-05-08T05:44:41.591Z,16.90
2023-05-08T05:45:41.601Z,17.10
2023-05-08T05:46:44.121Z,17.10
2023-05-08T05:47:41.620Z,17.00
2023-05-08T05:48:42.106Z,16.70
2023-05-08T05:49:41.584Z,16.40
2023-05-08T05:50:41.564Z,16.60
2023-05-08T05:51:41.554Z,16.80
2023-05-08T05:52:41.520Z,16.80
2023-05-08T05:53:41.559Z,15.90
2023-05-08T05:54:41.510Z,16.20
2023-05-08T05:55:41.532Z,16.80
2023-05-08T05:56:41.505Z,16.50
2023-05-08T05:57:41.535Z,16.20
2023-05-08T05:58:41.497Z,16.40
2023-05-08T05:59:41.490Z,16.20
2023-05-08T06:00:41.469Z,16.90
2023-05-08T06:01:41.549Z,16.20
2023-05-08T06:02:41.563Z,16.60
2023-05-08T06:03:41.548Z,16.30
2023-05-08T06:04:41.470Z,16.00
2023-05-08T06:05:41.462Z,16.60
2023-05-08T06:06:41.463Z,16.00
2023-05-08T06:07:41.446Z,16.30
2023-05-08T06:08:41.421Z,16.20
2023-05-08T06:09:41.428Z,16.00
2023-05-08T06:10:41.427Z,16.20
2023-05-08T06:11:41.408Z,16.50
2023-05-08T06:12:41.428Z,16.20
2023-05-08T06:13:41.424Z,15.50
2023-05-08T06:14:41.376Z,15.50
2023-05-08T06:15:41.395Z,15.50
2023-05-08T06:16:41.403Z,15.80
2023-05-08T06:17:41.444Z,15.20
2023-05-08T06:18:41.347Z,14.90
2023-05-08T06:19:41.361Z,15.90
2023-05-08T06:20:41.331Z,14.90
2023-05-08T06:21:41.342Z,15.50
2023-05-08T06:22:41.374Z,15.30
2023-05-08T06:23:41.359Z,14.60
2023-05-08T06:24:41.310Z,14.90
2023-05-08T06:25:41.310Z,15.30
2023-05-08T06:26:41.287Z,14.40
2023-05-08T06:27:41.306Z,15.10
2023-05-08T06:28:41.308Z,14.20
2023-05-08T06:29:41.280Z,14.90
2023-05-08T06:30:41.372Z,14.80
2023-05-08T06:31:41.274Z,15.00
2023-05-08T06:32:41.297Z,14.60
2023-05-08T06:33:41.282Z,14.50
2023-05-08T06:34:41.251Z,14.70
2023-05-08T06:35:41.250Z,14.40
2023-05-08T06:36:41.248Z,13.80
2023-05-08T06:37:41.239Z,14.20
2023-05-08T06:38:41.241Z,14.00
2023-05-08T06:39:41.237Z,14.30
2023-05-08T06:40:41.210Z,13.80
2023-05-08T06:41:41.216Z,14.20
2023-05-08T06:42:41.215Z,14.50
2023-05-08T06:43:41.219Z,14.00
2023-05-08T06:44:41.174Z,14.10
2023-05-08T06:45:41.192Z,14.00
2023-05-08T06:46:41.235Z,13.60
2023-05-08T06:47:41.271Z,13.00
2023-05-08T06:48:41.196Z,13.30
2023-05-08T06:49:41.155Z,13.00
2023-05-08T06:50:41.148Z,13.40
2023-05-08T06:51:41.152Z,13.00
2023-05-08T06:52:41.125Z,12.70
2023-05-08T06:53:41.193Z,12.30
2023-05-08T06:54:41.120Z,12.60
2023-05-08T06:55:41.144Z,12.80
2023-05-08T06:56:41.120Z,12.50
2023-05-08T06:57:41.113Z,12.70
2023-05-08T06:58:41.091Z,12.00
2023-05-08T06:59:41.104Z,12.70
2023-05-08T07:00:41.060Z,12.60
2023-05-08T07:01:41.143Z,12.80
2023-05-08T07:02:41.083Z,12.30
2023-05-08T07:03:41.081Z,12.50
2023-05-08T07:04:41.074Z,11.90
2023-05-08T07:05:41.047Z,11.60
2023-05-08T07:06:41.026Z,12.00
2023-05-08T07:07:41.040Z,11.90
2023-05-08T07:08:40.997Z,12.40
2023-05-08T07:09:41.042Z,11.90
2023-05-08T07:10:40.992Z,11.90
2023-05-08T07:11:40.997Z,11.90
2023-05-08T07:12:41.090Z,11.90
2023-05-08T07:13:40.978Z,11.90
2023-05-08T07:14:40.960Z,11.50
2023-05-08T07:15:41.096Z,11.90
2023-05-08T07:16:40.967Z,11.70
2023-05-08T07:17:40.988Z,11.70
2023-05-08T07:18:40.992Z,11.40
2023-05-08T07:19:40.941Z,11.40
2023-05-08T07:20:40.913Z,11.10
2023-05-08T07:21:40.964Z,10.80
2023-05-08T07:22:40.904Z,10.80
2023-05-08T07:23:40.909Z,11.40
2023-05-08T07:24:40.871Z,11.40
2023-05-08T07:25:40.895Z,10.80
2023-05-08T07:26:40.888Z,10.70
2023-05-08T07:27:40.900Z,11.20
2023-05-08T07:28:40.846Z,10.20
2023-05-08T07:29:40.859Z,10.40
2023-05-08T07:30:40.842Z,10.70
2023-05-08T07:31:40.959Z,9.60
2023-05-08T07:32:40.876Z,10.30
2023-05-08T07:33:40.833Z,10.30
2023-05-08T07:34:40.837Z,9.80
2023-05-08T07:35:40.842Z,10.20
2023-05-08T07:36:40.789Z,10.10
2023-05-08T07:37:40.819Z,10.60
2023-05-08T07:38:40.781Z,10.50
2023-05-08T07:39:40.784Z,10.10
2023-05-08T07:40:40.763Z,9.90
2023-05-08T07:41:40.950Z,10.50
2023-05-08T07:42:40.753Z,10.30
2023-05-08T07:43:40.763Z,10.00
2023-05-08T07:44:53.615Z,9.40
2023-05-08T07:45:41.734Z,10.00
2023-05-08T07:46:40.753Z,9.40
2023-05-08T07:47:40.798Z,9.40
2023-05-08T07:48:40.719Z,9.00
2023-05-08T07:49:40.703Z,9.70
2023-05-08T07:50:40.730Z,9.20
2023-05-08T07:51:40.694Z,9.50
2023-05-08T07:52:40.677Z,9.50
2023-05-08T07:53:40.688Z,10.30
2023-05-08T07:54:40.654Z,9.40
2023-05-08T07:55:40.656Z,9.30
2023-05-08T07:56:40.648Z,9.40
2023-05-08T07:57:40.632Z,9.00
2023-05-08T07:58:40.626Z,8.70
2023-05-08T07:59:40.650Z,9.10
2023-05-08T08:00:40.611Z,9.40
2023-05-08T08:01:40.640Z,9.40
2023-05-08T08:02:40.695Z,8.80
2023-05-08T08:03:40.680Z,8.60
2023-05-08T08:04:40.571Z,8.40
2023-05-08T08:05:40.607Z,8.60
2023-05-08T08:06:40.562Z,8.30
2023-05-08T08:07:40.598Z,8.40
2023-05-08T08:08:40.534Z,8.60
2023-05-08T08:09:40.568Z,8.60
2023-05-08T08:10:40.523Z,8.70
2023-05-08T08:11:40.558Z,8.60
2023-05-08T08:12:40.543Z,8.90
2023-05-08T08:13:40.514Z,8.30
2023-05-08T08:14:40.514Z,8.90
2023-05-08T08:15:40.520Z,8.90
2023-05-08T08:16:40.501Z,9.10
2023-05-08T08:17:40.536Z,9.50
2023-05-08T08:18:40.469Z,8.50
2023-05-08T08:19:40.470Z,8.80
2023-05-08T08:20:40.451Z,8.70
2023-05-08T08:21:41.142Z,8.60
2023-05-08T08:22:40.547Z,9.40
2023-05-08T08:23:40.447Z,9.30
2023-05-08T08:24:40.444Z,9.20
2023-05-08T08:25:40.467Z,8.60
2023-05-08T08:26:40.398Z,8.70
2023-05-08T08:27:40.431Z,9.40
2023-05-08T08:28:40.395Z,8.70
2023-05-08T08:29:40.383Z,8.60
2023-05-08T08:30:40.355Z,8.70
2023-05-08T08:31:40.409Z,8.40
2023-05-08T08:32:40.416Z,8.70
2023-05-08T08:33:40.356Z,8.40
2023-05-08T08:34:40.369Z,8.40
2023-05-08T08:35:40.355Z,7.80
2023-05-08T08:36:40.309Z,8.30
2023-05-08T08:37:40.316Z,8.70
2023-05-08T08:38:40.420Z,8.80
2023-05-08T08:39:40.311Z,8.10
2023-05-08T08:40:40.283Z,9.10
2023-05-08T08:41:40.308Z,9.00
2023-05-08T08:42:40.256Z,8.90
2023-05-08T08:43:40.291Z,8.20
2023-05-08T08:44:40.245Z,8.20
2023-05-08T08:45:40.275Z,8.70
2023-05-08T08:46:40.427Z,7.60
2023-05-08T08:47:40.286Z,7.40
2023-05-08T08:48:40.224Z,7.80
2023-05-08T08:49:40.230Z,8.20
2023-05-08T08:50:40.201Z,8.00
2023-05-08T08:51:40.212Z,8.00
2023-05-08T08:52:40.175Z,7.70
2023-05-08T08:53:40.192Z,7.90
2023-05-08T08:54:40.278Z,8.10
2023-05-08T08:55:40.183Z,7.90
2023-05-08T08:56:40.152Z,8.00
2023-05-08T08:57:40.173Z,7.50
2023-05-08T08:58:40.128Z,7.60
2023-05-08T08:59:40.148Z,7.00
2023-05-08T09:00:40.115Z,6.90
2023-05-08T09:01:40.156Z,7.00
2023-05-08T09:02:40.234Z,7.20
2023-05-08T09:03:40.239Z,7.90
2023-05-08T09:04:40.088Z,7.40
2023-05-08T09:05:40.095Z,7.40
2023-05-08T09:06:40.074Z,7.80
2023-05-08T09:07:40.082Z,7.00
2023-05-08T09:08:40.065Z,7.50
2023-05-08T09:09:40.092Z,7.70
2023-05-08T09:10:40.166Z,7.30
2023-05-08T09:11:40.053Z,7.10
2023-05-08T09:12:40.081Z,6.90
2023-05-08T09:13:40.042Z,7.70
2023-05-08T09:14:40.019Z,7.10
2023-05-08T09:15:40.061Z,6.60
2023-05-08T09:16:40.062Z,7.30
2023-05-08T09:17:40.024Z,6.80
2023-05-08T09:18:39.989Z,6.80
2023-05-08T09:19:39.993Z,6.90
2023-05-08T09:20:39.980Z,6.30
2023-05-08T09:21:40.010Z,7.20
2023-05-08T09:22:39.958Z,6.40
2023-05-08T09:23:39.961Z,7.20
2023-05-08T09:24:39.944Z,7.60
2023-05-08T09:25:39.948Z,6.90
2023-05-08T09:26:40.025Z,7.20
2023-05-08T09:27:39.967Z,7.10
2023-05-08T09:28:39.916Z,7.40
2023-05-08T09:29:39.917Z,6.40
2023-05-08T09:30:39.895Z,6.80
2023-05-08T09:31:40.003Z,7.60
2023-05-08T09:32:40.001Z,6.90
2023-05-08T09:33:39.894Z,7.20
2023-05-08T09:34:39.870Z,7.40
2023-05-08T09:35:39.921Z,7.10
2023-05-08T09:36:39.865Z,7.10
2023-05-08T09:37:40.676Z,6.80
2023-05-08T09:38:39.863Z,6.60
2023-05-08T09:39:39.873Z,6.80
2023-05-08T09:40:39.832Z,6.50
2023-05-08T09:41:39.869Z,6.30
2023-05-08T09:42:39.840Z,7.50
2023-05-08T09:43:39.875Z,6.80
2023-05-08T09:44:39.803Z,6.70
2023-05-08T09:45:39.870Z,5.80
2023-05-08T09:46:39.837Z,6.20
2023-05-08T09:47:39.873Z,7.30
2023-05-08T09:48:39.778Z,6.60
2023-05-08T09:49:39.784Z,6.30
2023-05-08T09:50:40.996Z,7.30
2023-05-08T09:51:39.769Z,6.60
2023-05-08T09:52:39.772Z,6.80
2023-05-08T09:53:39.764Z,6.00
2023-05-08T09:54:39.737Z,6.80
2023-05-08T09:55:39.749Z,6.20
2023-05-08T09:56:40.096Z,6.90
2023-05-08T09:57:39.794Z,6.00
2023-05-08T09:58:39.842Z,6.60
2023-05-08T09:59:39.714Z,6.40
2023-05-08T10:00:39.711Z,6.10
2023-05-08T10:01:39.776Z,6.10
2023-05-08T10:02:39.724Z,5.70
2023-05-08T10:03:39.730Z,6.30
2023-05-08T10:04:39.750Z,6.60
2023-05-08T10:05:39.674Z,6.50
2023-05-08T10:06:39.656Z,6.50
2023-05-08T10:07:39.739Z,6.40
2023-05-08T10:08:39.665Z,6.10
2023-05-08T10:09:50.385Z,5.90
2023-05-08T10:10:41.179Z,6.10
2023-05-08T10:11:39.639Z,6.00
2023-05-08T10:12:39.633Z,5.70
2023-05-08T10:13:39.641Z,6.20
2023-05-08T10:14:39.732Z,6.60
2023-05-08T10:15:39.625Z,5.70
2023-05-08T10:16:39.631Z,5.90
2023-05-08T10:17:39.617Z,6.60
2023-05-08T10:18:39.595Z,5.60
2023-05-08T10:19:39.617Z,5.70
2023-05-08T10:20:39.567Z,5.80
2023-05-08T10:21:39.574Z,6.20
2023-05-08T10:22:39.549Z,5.70
2023-05-08T10:23:39.576Z,5.90
2023-05-08T10:24:39.548Z,6.20
2023-05-08T10:25:39.548Z,6.20
2023-05-08T10:26:40.871Z,6.00
2023-05-08T10:27:39.534Z,6.50
2023-05-08T10:28:39.531Z,6.00
2023-05-08T10:29:39.515Z,5.70
2023-05-08T10:30:39.615Z,6.00
2023-05-08T10:31:39.511Z,6.80
2023-05-08T10:32:39.625Z,6.10
2023-05-08T10:33:39.683Z,5.90
2023-05-08T10:34:39.461Z,5.70
2023-05-08T10:35:39.465Z,5.60
2023-05-08T10:36:40.192Z,5.40
2023-05-08T10:37:39.464Z,6.20
2023-05-08T10:38:39.435Z,5.90
2023-05-08T10:39:39.458Z,5.50
2023-05-08T10:40:39.424Z,5.70
2023-05-08T10:41:39.454Z,6.20
2023-05-08T10:42:39.415Z,6.10
2023-05-08T10:43:39.425Z,6.30
2023-05-08T10:44:39.394Z,5.90
2023-05-08T10:45:39.416Z,5.20
2023-05-08T10:46:39.532Z,5.40
2023-05-08T10:47:39.486Z,6.10
2023-05-08T10:48:39.378Z,5.70
2023-05-08T10:49:39.376Z,5.80
2023-05-08T10:50:39.350Z,5.30
2023-05-08T10:51:39.481Z,5.50
2023-05-08T10:52:39.344Z,5.20
2023-05-08T10:53:39.375Z,4.90
2023-05-08T10:54:39.346Z,5.60
2023-05-08T10:55:39.336Z,6.00
2023-05-08T10:56:39.316Z,5.80
2023-05-08T10:57:39.323Z,5.10
2023-05-08T10:58:39.368Z,5.50
2023-05-08T10:59:39.325Z,5.10
2023-05-08T11:00:39.309Z,5.20
2023-05-08T11:01:39.335Z,5.70
2023-05-08T11:02:39.340Z,5.40
2023-05-08T11:03:39.405Z,5.30
2023-05-08T11:04:39.388Z,5.60
2023-05-08T11:05:39.277Z,5.40
2023-05-08T11:06:39.238Z,5.30
2023-05-08T11:07:40.744Z,5.10
2023-05-08T11:08:39.227Z,5.20
2023-05-08T11:09:39.256Z,4.80
2023-05-08T11:10:39.215Z,4.90
2023-05-08T11:11:39.235Z,4.80
2023-05-08T11:12:39.269Z,5.30
2023-05-08T11:13:39.202Z,4.90
2023-05-08T11:14:39.211Z,4.90
2023-05-08T11:15:39.197Z,5.20
2023-05-08T11:16:39.352Z,5.00
2023-05-08T11:17:39.220Z,4.80
2023-05-08T11:18:49.178Z,5.20
2023-05-08T11:19:40.193Z,6.10
2023-05-08T11:20:39.147Z,5.40
2023-05-08T11:21:39.160Z,5.50
2023-05-08T11:22:39.119Z,5.30
2023-05-08T11:23:39.153Z,4.80
2023-05-08T11:24:39.160Z,4.70
2023-05-08T11:25:39.124Z,5.00
2023-05-08T11:26:39.121Z,4.90
2023-05-08T11:27:39.134Z,5.20
2023-05-08T11:28:39.090Z,5.10
2023-05-08T11:29:39.103Z,5.10
2023-05-08T11:30:39.168Z,5.50
2023-05-08T11:31:39.160Z,5.20
2023-05-08T11:32:39.106Z,5.20
2023-05-08T11:33:39.113Z,5.60
2023-05-08T11:34:39.140Z,5.40
2023-05-08T11:35:39.051Z,5.50
2023-05-08T11:36:39.027Z,5.10
2023-05-08T11:37:39.043Z,4.80
2023-05-08T11:38:39.038Z,4.90
2023-05-08T11:39:39.034Z,5.00
2023-05-08T11:40:39.010Z,5.10
2023-05-08T11:41:39.027Z,5.20
2023-05-08T11:42:38.991Z,4.90
2023-05-08T11:43:39.006Z,5.20
2023-05-08T11:44:38.996Z,5.30
2023-05-08T11:45:38.996Z,6.10
2023-05-08T11:46:38.984Z,5.50
2023-05-08T11:47:38.996Z,5.40
2023-05-08T11:48:38.973Z,5.10
2023-05-08T11:49:38.987Z,5.10
2023-05-08T11:50:38.929Z,5.40
2023-05-08T11:51:38.980Z,5.70
2023-05-08T11:52:38.921Z,5.00
2023-05-08T11:53:38.921Z,5.60
2023-05-08T11:54:38.911Z,5.90
2023-05-08T11:55:38.914Z,5.70
2023-05-08T11:56:38.896Z,5.10
2023-05-08T11:57:38.946Z,5.00
2023-05-08T11:58:38.889Z,5.00
2023-05-08T11:59:38.893Z,4.80
2023-05-08T12:00:38.882Z,4.90
2023-05-08T12:01:38.874Z,5.00
2023-05-08T12:02:38.966Z,5.20
2023-05-08T12:03:39.100Z,4.70
2023-05-08T12:04:38.877Z,5.10
2023-05-08T12:05:38.845Z,5.00
2023-05-08T12:06:38.816Z,4.90
2023-05-08T12:07:38.834Z,5.00
2023-05-08T12:08:38.831Z,5.70
2023-05-08T12:09:38.846Z,4.90
2023-05-08T12:10:38.777Z,4.80
2023-05-08T12:11:38.794Z,5.40
2023-05-08T12:12:38.793Z,5.20
2023-05-08T12:13:38.781Z,5.20
2023-05-08T12:14:38.764Z,5.10
2023-05-08T12:15:38.815Z,4.80
2023-05-08T12:16:38.827Z,4.80
2023-05-08T12:17:38.788Z,5.40
2023-05-08T12:18:39.849Z,5.00
2023-05-08T12:19:38.744Z,5.20
2023-05-08T12:20:38.711Z,4.80
2023-05-08T12:21:38.737Z,4.70
2023-05-08T12:22:38.887Z,4.70
2023-05-08T12:23:38.716Z,5.10
2023-05-08T12:24:38.693Z,4.70
2023-05-08T12:25:38.712Z,4.50
2023-05-08T12:26:38.755Z,4.30
2023-05-08T12:27:38.705Z,4.60
2023-05-08T12:28:38.658Z,4.90
2023-05-08T12:29:38.696Z,4.60
2023-05-08T12:30:38.645Z,4.20
2023-05-08T12:31:38.731Z,4.20
2023-05-08T12:32:38.674Z,4.30
2023-05-08T12:33:38.672Z,4.70
2023-05-08T12:34:38.642Z,4.40
2023-05-08T12:35:38.636Z,4.70
2023-05-08T12:36:38.608Z,4.70
2023-05-08T12:37:38.632Z,4.40
2023-05-08T12:38:38.708Z,4.30
2023-05-08T12:39:38.638Z,4.20
2023-05-08T12:40:38.594Z,4.10
2023-05-08T12:41:38.610Z,4.00
2023-05-08T12:42:38.589Z,4.00
2023-05-08T12:43:38.580Z,3.90
2023-05-08T12:44:38.599Z,3.80
2023-05-08T12:45:38.586Z,3.70
2023-05-08T12:46:38.566Z,4.00
2023-05-08T12:47:38.650Z,3.40
2023-05-08T12:48:38.578Z,3.50
2023-05-08T12:49:38.576Z,3.60
2023-05-08T12:50:38.565Z,3.60
2023-05-08T12:51:38.516Z,3.70
2023-05-08T12:52:38.496Z,3.50
2023-05-08T12:53:38.514Z,3.80
2023-05-08T12:54:38.663Z,3.50
2023-05-08T12:55:38.493Z,4.00
2023-05-08T12:56:38.516Z,3.90
2023-05-08T12:57:38.498Z,3.80
2023-05-08T12:58:38.482Z,3.80
2023-05-08T12:59:38.486Z,4.10
2023-05-08T13:00:38.459Z,4.70
2023-05-08T13:01:38.494Z,3.90
2023-05-08T13:02:47.348Z,4.20
2023-05-08T13:03:39.548Z,4.20